createdAt,value
2022-08-29T00:00:17.633Z,16.20
2022-08-29T00:04:01.027Z,16.20
2022-08-29T00:07:45.082Z,16.20
2022-08-29T00:11:27.602Z,16.10
2022-08-29T00:15:13.615Z,16.10
2022-08-29T00:18:56.064Z,16.00
2022-08-29T00:22:39.049Z,16.00
2022-08-29T00:26:23.140Z,15.90
2022-08-29T00:30:10.488Z,15.80
2022-08-29T00:33:53.324Z,15.80
2022-08-29T00:37:36.770Z,15.80
2022-08-29T00:41:19.281Z,15.80
2022-08-29T00:45:03.393Z,15.80
2022-08-29T00:48:51.249Z,15.70
2022-08-29T00:52:40.796Z,15.70
2022-08-29T00:56:23.582Z,15.60
2022-08-29T01:00:09.353Z,15.50
2022-08-29T01:03:53.513Z,15.40
2022-08-29T01:07:36.359Z,15.30
2022-08-29T01:11:39.333Z,15.30
2022-08-29T01:15:24.450Z,15.30
2022-08-29T01:19:20.100Z,15.10
2022-08-29T01:23:08.547Z,15.10
2022-08-29T01:26:52.636Z,15.10
2022-08-29T01:30:35.754Z,15.10
2022-08-29T01:34:20.500Z,15.00
2022-08-29T01:38:03.665Z,14.90
2022-08-29T01:41:46.260Z,14.80
2022-08-29T01:45:30.391Z,14.80
2022-08-29T01:49:13.866Z,14.80
2022-08-29T01:52:56.595Z,14.70
2022-08-29T01:56:42.534Z,14.70
2022-08-29T02:00:25.808Z,14.60
2022-08-29T02:04:10.220Z,14.70
2022-08-29T02:07:52.924Z,14.70
2022-08-29T02:11:36.539Z,14.60
2022-08-29T02:15:19.282Z,14.60
2022-08-29T02:19:02.211Z,14.50
2022-08-29T02:22:46.508Z,14.50
2022-08-29T02:26:29.557Z,14.50
2022-08-29T02:30:14.329Z,14.50
2022-08-29T02:33:57.010Z,14.50
2022-08-29T02:37:39.547Z,14.40
2022-08-29T02:41:23.564Z,14.40
2022-08-29T02:45:06.881Z,14.40
2022-08-29T02:49:01.362Z,14.40
2022-08-29T02:52:44.738Z,14.30
2022-08-29T02:56:29.822Z,14.30
2022-08-29T03:00:17.334Z,14.30
2022-08-29T03:03:59.774Z,14.30
2022-08-29T03:07:42.870Z,14.20
2022-08-29T03:11:27.021Z,14.20
2022-08-29T03:15:12.481Z,14.20
2022-08-29T03:18:55.444Z,14.20
2022-08-29T03:22:38.535Z,14.20
2022-08-29T03:26:21.150Z,14.20
2022-08-29T03:30:03.762Z,14.10
2022-08-29T03:33:47.878Z,14.00
2022-08-29T03:37:31.252Z,14.00
2022-08-29T03:41:21.639Z,13.90
2022-08-29T03:45:04.989Z,13.90
2022-08-29T03:48:49.083Z,13.80
2022-08-29T03:52:31.654Z,13.90
2022-08-29T03:56:18.882Z,13.80
2022-08-29T04:00:02.436Z,13.80
2022-08-29T04:03:45.457Z,13.80
2022-08-29T04:07:29.564Z,13.80
2022-08-29T04:11:12.111Z,13.80
2022-08-29T04:14:55.124Z,13.70
2022-08-29T04:18:38.289Z,13.70
2022-08-29T04:22:20.717Z,13.60
2022-08-29T04:26:31.285Z,13.60
2022-08-29T04:30:10.504Z,13.60
2022-08-29T04:33:53.299Z,13.60
2022-08-29T04:37:36.091Z,13.60
2022-08-29T04:41:20.036Z,13.60
2022-08-29T04:45:02.768Z,13.60
2022-08-29T04:48:45.849Z,13.60
2022-08-29T04:52:29.246Z,13.60
2022-08-29T04:56:13.726Z,13.70
2022-08-29T05:00:00.119Z,13.70
2022-08-29T05:03:43.467Z,13.70
2022-08-29T05:07:27.841Z,13.80
2022-08-29T05:11:13.050Z,13.90
2022-08-29T05:14:56.068Z,14.00
2022-08-29T05:18:41.249Z,14.10
2022-08-29T05:22:24.208Z,14.20
2022-08-29T05:26:07.283Z,14.40
2022-08-29T05:29:51.847Z,14.50
2022-08-29T05:33:34.463Z,14.60
2022-08-29T05:37:21.674Z,14.70
2022-08-29T05:41:04.501Z,14.80
2022-08-29T05:44:47.725Z,14.90
2022-08-29T05:48:30.301Z,15.10
2022-08-29T05:52:14.760Z,15.30
2022-08-29T05:55:59.030Z,15.40
2022-08-29T05:59:41.929Z,15.60
2022-08-29T06:03:24.606Z,15.70
2022-08-29T06:07:08.204Z,15.80
2022-08-29T06:10:50.729Z,16.00
2022-08-29T06:14:35.392Z,16.20
2022-08-29T06:18:17.697Z,16.30
2022-08-29T06:22:09.947Z,16.50
2022-08-29T06:25:56.961Z,16.70
2022-08-29T06:29:43.082Z,16.70
2022-08-29T06:33:25.893Z,16.70
2022-08-29T06:37:08.608Z,16.90
2022-08-29T06:40:51.497Z,17.10
2022-08-29T06:44:34.108Z,17.20
2022-08-29T06:48:18.069Z,17.30
2022-08-29T06:52:01.008Z,17.40
2022-08-29T06:55:43.857Z,17.50
2022-08-29T06:59:27.829Z,17.50
2022-08-29T07:03:11.277Z,17.60
2022-08-29T07:06:55.861Z,17.70
2022-08-29T07:10:38.264Z,17.80
2022-08-29T07:14:21.372Z,17.90
2022-08-29T07:18:04.064Z,18.00
2022-08-29T07:21:48.790Z,18.20
2022-08-29T07:25:33.628Z,18.40
2022-08-29T07:29:19.133Z,18.50
2022-08-29T07:33:01.946Z,18.60
2022-08-29T07:36:44.716Z,18.90
2022-08-29T07:40:27.328Z,19.00
2022-08-29T07:44:12.340Z,19.00
2022-08-29T07:47:54.935Z,19.00
2022-08-29T07:51:38.074Z,18.90
2022-08-29T07:55:27.460Z,19.00
2022-08-29T07:59:11.752Z,19.20
2022-08-29T08:02:54.553Z,19.40
2022-08-29T08:06:37.755Z,19.50
2022-08-29T08:10:22.069Z,19.90
2022-08-29T08:14:05.422Z,19.80
2022-08-29T08:17:49.063Z,20.10
2022-08-29T08:21:31.360Z,20.20
2022-08-29T08:25:14.203Z,20.30
2022-08-29T08:28:56.313Z,20.30
2022-08-29T08:32:41.109Z,20.70
2022-08-29T08:36:29.798Z,21.00
2022-08-29T08:40:19.729Z,20.90
2022-08-29T08:44:07.120Z,21.10
2022-08-29T08:47:52.100Z,21.10
2022-08-29T08:51:39.359Z,21.40
2022-08-29T08:55:29.301Z,21.70
2022-08-29T08:59:19.367Z,21.90
2022-08-29T09:03:14.128Z,22.10
2022-08-29T09:07:10.388Z,22.00
2022-08-29T09:10:59.261Z,21.90
2022-08-29T09:14:54.187Z,21.80
2022-08-29T09:18:40.604Z,22.10
2022-08-29T09:22:32.933Z,22.00
2022-08-29T09:26:18.529Z,22.00
2022-08-29T09:30:07.480Z,22.20
2022-08-29T09:33:52.754Z,22.80
2022-08-29T09:37:37.179Z,23.40
2022-08-29T09:41:30.857Z,22.80
2022-08-29T09:45:19.633Z,22.90
2022-08-29T09:49:14.055Z,22.90
2022-08-29T09:53:00.732Z,23.50
2022-08-29T09:56:51.977Z,24.20
2022-08-29T10:00:37.655Z,24.60
2022-08-29T10:04:38.106Z,24.70
2022-08-29T10:08:31.384Z,24.90
2022-08-29T10:12:20.961Z,25.10
2022-08-29T10:16:13.155Z,24.90
2022-08-29T10:19:56.137Z,25.00
2022-08-29T10:23:49.576Z,24.80
2022-08-29T10:27:41.859Z,24.70
2022-08-29T10:31:34.202Z,23.90
2022-08-29T10:35:21.234Z,24.30
2022-08-29T10:39:14.495Z,24.50
2022-08-29T10:43:02.899Z,24.10
2022-08-29T10:47:20.629Z,23.70
2022-08-29T10:51:17.533Z,23.60
2022-08-29T10:55:11.543Z,23.60
2022-08-29T10:59:05.041Z,23.80
2022-08-29T11:02:55.515Z,24.10
2022-08-29T11:06:44.247Z,24.40
2022-08-29T11:10:38.706Z,24.30
2022-08-29T11:14:29.597Z,24.20
2022-08-29T11:18:22.369Z,24.40
2022-08-29T11:22:12.748Z,24.50
2022-08-29T11:25:58.022Z,24.80
2022-08-29T11:29:47.029Z,24.10
2022-08-29T11:33:43.067Z,24.40
2022-08-29T11:37:58.387Z,24.50
2022-08-29T11:41:45.575Z,23.90
2022-08-29T11:45:37.256Z,23.90
2022-08-29T11:49:28.176Z,23.90
2022-08-29T11:53:16.860Z,23.70
2022-08-29T11:57:34.203Z,24.10
2022-08-29T12:01:55.958Z,24.70
2022-08-29T12:05:57.777Z,24.70
2022-08-29T12:09:52.876Z,24.90
2022-08-29T12:14:04.888Z,24.80
2022-08-29T12:18:04.378Z,24.90
2022-08-29T12:21:49.541Z,24.50
2022-08-29T12:25:46.278Z,24.20
2022-08-29T12:29:33.308Z,24.30
2022-08-29T12:33:36.361Z,24.50
2022-08-29T12:37:34.000Z,24.30
2022-08-29T12:41:35.094Z,24.40
2022-08-29T12:45:21.302Z,24.50
2022-08-29T12:49:15.954Z,24.60
2022-08-29T12:53:05.721Z,24.80
2022-08-29T12:56:52.153Z,24.90
2022-08-29T13:00:36.098Z,24.70
2022-08-29T13:04:21.862Z,25.10
2022-08-29T13:08:11.184Z,24.70
2022-08-29T13:12:12.100Z,24.90
2022-08-29T13:15:57.212Z,25.50
2022-08-29T13:19:39.973Z,25.60
2022-08-29T13:23:27.550Z,25.40
2022-08-29T13:27:10.694Z,25.10
2022-08-29T13:31:29.167Z,25.20
2022-08-29T13:35:21.124Z,25.00
2022-08-29T13:39:26.433Z,25.00
2022-08-29T13:43:26.819Z,24.90
2022-08-29T13:47:16.295Z,25.40
2022-08-29T13:51:00.091Z,25.10
2022-08-29T13:54:46.370Z,25.30
2022-08-29T13:58:31.318Z,25.40
2022-08-29T14:02:14.918Z,25.20
2022-08-29T14:05:58.199Z,24.70
2022-08-29T14:09:44.209Z,24.90
2022-08-29T14:13:28.892Z,24.90
2022-08-29T14:17:18.174Z,25.30
2022-08-29T14:21:01.285Z,25.40
2022-08-29T14:24:51.371Z,25.70
2022-08-29T14:28:39.943Z,25.70
2022-08-29T14:32:24.278Z,25.40
2022-08-29T14:36:11.521Z,25.30
2022-08-29T14:39:54.504Z,25.20
2022-08-29T14:43:39.966Z,25.40
2022-08-29T14:47:22.581Z,25.30
2022-08-29T14:51:05.992Z,25.30
2022-08-29T14:54:48.965Z,25.10
2022-08-29T14:58:31.530Z,25.20
2022-08-29T15:02:16.053Z,25.00
2022-08-29T15:05:59.829Z,24.90
2022-08-29T15:09:43.924Z,24.90
2022-08-29T15:13:26.757Z,24.90
2022-08-29T15:17:10.986Z,24.90
2022-08-29T15:20:54.877Z,25.00
2022-08-29T15:24:37.894Z,24.80
2022-08-29T15:28:21.760Z,24.70
2022-08-29T15:32:05.101Z,24.50
2022-08-29T15:35:47.572Z,24.30
2022-08-29T15:39:31.907Z,24.30
2022-08-29T15:43:14.762Z,24.40
2022-08-29T15:46:58.297Z,24.30
2022-08-29T15:50:41.205Z,24.70
2022-08-29T15:54:25.442Z,24.80
2022-08-29T15:58:09.896Z,24.70
2022-08-29T16:01:55.588Z,24.90
2022-08-29T16:05:40.222Z,25.20
2022-08-29T16:09:23.200Z,24.90
2022-08-29T16:13:06.312Z,25.00
2022-08-29T16:16:50.799Z,24.80
2022-08-29T16:20:33.268Z,24.80
2022-08-29T16:24:15.581Z,24.50
2022-08-29T16:27:59.319Z,24.70
2022-08-29T16:31:41.835Z,24.40
2022-08-29T16:35:26.928Z,24.70
2022-08-29T16:39:10.456Z,24.80
2022-08-29T16:42:54.989Z,24.70
2022-08-29T16:46:38.492Z,24.60
2022-08-29T16:50:21.503Z,24.60
2022-08-29T16:54:05.742Z,24.60
2022-08-29T16:58:02.575Z,24.60
2022-08-29T17:01:46.755Z,24.50
2022-08-29T17:05:30.590Z,24.30
2022-08-29T17:09:14.803Z,24.40
2022-08-29T17:12:56.493Z,24.20
2022-08-29T17:16:39.886Z,24.10
2022-08-29T17:20:22.570Z,24.20
2022-08-29T17:24:06.827Z,24.00
2022-08-29T17:28:14.192Z,23.80
2022-08-29T17:31:53.936Z,23.80
2022-08-29T17:35:43.270Z,23.70
2022-08-29T17:39:25.997Z,23.40
2022-08-29T17:43:11.541Z,23.20
2022-08-29T17:46:54.089Z,23.00
2022-08-29T17:50:37.498Z,22.90
2022-08-29T17:54:20.159Z,22.70
2022-08-29T17:58:02.803Z,22.60
2022-08-29T18:01:47.146Z,22.30
2022-08-29T18:05:32.576Z,22.20
2022-08-29T18:09:15.255Z,22.00
2022-08-29T18:12:57.768Z,21.90
2022-08-29T18:16:40.533Z,21.70
2022-08-29T18:20:24.981Z,21.50
2022-08-29T18:24:08.091Z,21.40
2022-08-29T18:27:51.280Z,21.20
2022-08-29T18:31:34.058Z,21.00
2022-08-29T18:35:17.990Z,20.90
2022-08-29T18:39:03.944Z,20.80
2022-08-29T18:42:46.395Z,20.70
2022-08-29T18:46:30.438Z,20.70
2022-08-29T18:50:30.835Z,20.70
2022-08-29T18:54:18.893Z,20.60
2022-08-29T18:58:01.912Z,20.50
2022-08-29T19:01:44.587Z,20.50
2022-08-29T19:05:31.132Z,20.50
2022-08-29T19:09:15.310Z,20.50
2022-08-29T19:12:59.193Z,20.60
2022-08-29T19:16:41.871Z,20.50
2022-08-29T19:20:44.808Z,20.50
2022-08-29T19:24:28.611Z,20.40
2022-08-29T19:28:11.978Z,20.40
2022-08-29T19:31:54.850Z,20.40
2022-08-29T19:35:38.647Z,20.40
2022-08-29T19:39:21.253Z,20.40
2022-08-29T19:43:13.641Z,20.30
2022-08-29T19:46:57.076Z,20.20
2022-08-29T19:50:41.261Z,20.30
2022-08-29T19:54:23.835Z,20.20
2022-08-29T19:58:08.390Z,20.30
2022-08-29T20:01:51.455Z,20.30
2022-08-29T20:05:34.133Z,20.30
2022-08-29T20:13:07.394Z,20.40
2022-08-29T20:16:50.534Z,20.30
2022-08-29T20:20:34.642Z,20.20
2022-08-29T20:24:17.455Z,20.10
2022-08-29T20:28:03.076Z,20.10
2022-08-29T20:31:47.596Z,20.00
2022-08-29T20:35:47.433Z,19.90
2022-08-29T20:39:30.334Z,19.80
2022-08-29T20:43:13.511Z,19.90
2022-08-29T20:46:57.473Z,20.00
2022-08-29T20:50:40.491Z,20.10
2022-08-29T20:54:25.324Z,20.10
2022-08-29T20:58:08.088Z,20.10
2022-08-29T21:01:51.025Z,20.00
2022-08-29T21:05:41.579Z,20.00
2022-08-29T21:09:25.282Z,20.00
2022-08-29T21:13:09.023Z,20.00
2022-08-29T21:16:52.818Z,19.90
2022-08-29T21:20:44.799Z,19.90
2022-08-29T21:24:37.145Z,19.80
2022-08-29T21:28:19.789Z,19.60
2022-08-29T21:32:02.583Z,19.50
2022-08-29T21:35:47.135Z,19.40
2022-08-29T21:39:32.806Z,19.20
2022-08-29T21:43:15.463Z,19.10
2022-08-29T21:46:58.354Z,18.90
2022-08-29T21:50:41.416Z,18.80
2022-08-29T21:54:26.244Z,18.60
2022-08-29T21:58:09.413Z,18.50
2022-08-29T22:01:54.753Z,18.50
2022-08-29T22:05:40.722Z,18.50
2022-08-29T22:09:28.078Z,18.40
2022-08-29T22:13:10.598Z,18.30
2022-08-29T22:16:54.333Z,18.30
2022-08-29T22:20:38.374Z,18.20
2022-08-29T22:24:20.997Z,18.10
2022-08-29T22:28:05.903Z,18.00
2022-08-29T22:31:48.903Z,18.00
2022-08-29T22:35:31.989Z,17.90
2022-08-29T22:52:55.818Z,17.40
2022-08-29T22:56:41.227Z,17.30
2022-08-29T23:00:26.783Z,17.30
2022-08-29T23:04:09.955Z,17.40
2022-08-29T23:07:53.690Z,17.50
2022-08-29T23:11:36.414Z,17.60
2022-08-29T23:15:20.109Z,17.60
2022-08-29T23:19:03.697Z,17.50
2022-08-29T23:22:46.660Z,17.40
2022-08-29T23:26:32.857Z,17.40
2022-08-29T23:30:15.569Z,17.30
2022-08-29T23:33:58.168Z,17.30
2022-08-29T23:37:40.990Z,17.20
2022-08-29T23:41:24.089Z,17.20
2022-08-29T23:45:10.850Z,17.20
2022-08-29T23:48:54.167Z,17.20
2022-08-29T23:52:36.925Z,17.10
2022-08-29T23:56:21.250Z,17.10
